Aeroporto :
LOGIN :

Iscrizione | Disclaimer

   EN    FR    IT 

 










Sommario :    VFR   VFR Marginale   IFR   IFR Intensivo   IFR Molto Intensivo
Visibilità : 
Base nubi : 
>= 8 km
>= 3000ft
5 / 8 km
1000 / 3000 ft
1500m / 5 km
500 / 1000 ft
800 / 1500m
200 / 500 ft
< 800m
< 200 ft
Simboli :   Temporali  Nebbia  Neve Forte  Precipitazioni Forti  Vento > 20 kt
SIGMETs :   Varie  Temporali  Ghiacco  Turbolenza  Onda orograficha  Ceneri Vulcaniche







- Altitudine del aeroporto : 1058 ft
- Codice IATA : SCN


EDDR - Saarbrücken

ULTIMO METAR :
  • 220850Z 06016KT CAVOK M01/M08 Q1017 NOSIG

METARs OBSOLETI :
  • 220820Z 06014KT CAVOK M02/M08 Q1017 NOSIG
  • 220750Z 06015KT 030V090 CAVOK M02/M08 Q1017 NOSIG
  • 220720Z 06016KT CAVOK M03/M08 Q1017 BECMG 06015G25KT
  • 220650Z 05013G23KT CAVOK M03/M08 Q1017 BECMG 06015G25KT
  • 220620Z 06013KT 030V090 CAVOK M03/M08 Q1017 BECMG 06015G25KT
  • 220550Z 06013KT 020V080 CAVOK M03/M07 Q1017 NOSIG

TAF TAF EDDR
Valido dal 22 a 06 ore il 23 a 06 ore UTC


220500Z 2206/2306 05012KT CAVOK
TEMPO 2208/2306 05015G30KT
Nessun NOTAM noto per questo aeroporto.



MetMap, La meteo Aeronautica in un colpo d'occhio ! - Copyright ORBIFLY Dicembre 2007 - Disclaimer

ORBIFLY MET'MAP TEAM :

Programmazione e sviluppo : Alexandra Zaïnal
Concezione e sviluppo : Baudouin d'Aumeries
Co-Programmazione e sviluppo : Marc-Olivier Méhu
Supporto tecnico e logistico : Manuel Goepfert
Aiuto per la traduzione : Arnaldo La Scala

Contatto : metmap@orbifly.com




FONTI E CREDITI :

   NOAA